SKSM/SMR METAR and TAF weather

Enter ICAO airport designator
Station Type Date Time Source
SKSM METAR 2019/06/17 15:00 UTC NOAA

SKSM 171500Z 31008KT 9999 FEW020 32/26 A2987


Station Type Date Time Source
SKSM Decoded METAR 2019/06/17 15:00 UTC NOAA

Santa Marta / Simon Bolivar, Colombia (SKSM) 11-08N 074-14W 14M
Jun 17, 2019 - 11:00 AM EDT / 2019.06.17 1500 UTC
Wind: from the NW (310 degrees) at 9 MPH (8 KT):0
Visibility: greater than 7 mile(s):0
Sky conditions: mostly clear
Temperature: 89 F (32 C)
Heat index: 102.9 F (39.4 C):1
Dew Point: 78 F (26 C)
Relative Humidity: 70%
Pressure (altimeter): 29.87 in. Hg (1011 hPa)
ob: SKSM 171500Z 31008KT 9999 FEW020 32/26 A2987
cycle: 15

Station Type Date Time Source
SKSM TAF UTC NOAA

Error!

Example: see airport list